KADW/ADW METAR and TAF weather

Enter ICAO airport designator
Station Type Date Time Source
KADW METAR 2021/09/28 16:56 UTC NOAA

KADW 281656Z AUTO 25008KT 10SM FEW130 FEW180 SCT200 25/16 A2987 RMK AO2 SLP120 T02480157 $


Station Type Date Time Source
KADW Decoded METAR 2021/09/28 16:56 UTC NOAA

Camp Springs / Andrews Air Force Base, MD, United States (KADW) 38-49N 076-51W 88M
Sep 28, 2021 - 12:56 PM EDT / 2021.09.28 1656 UTC
Wind: from the WSW (250 degrees) at 9 MPH (8 KT):0
Visibility: 10 mile(s):0
Sky conditions: partly cloudy
Temperature: 76.6 F (24.8 C)
Dew Point: 60.3 F (15.7 C)
Relative Humidity: 56%
Pressure (altimeter): 29.87 in. Hg (1011 hPa)
ob: KADW 281656Z AUTO 25008KT 10SM FEW130 FEW180 SCT200 25/16 A2987 RMK AO2 SLP120 T02480157
cycle: 17

Station Type Date Time Source
KADW TAF 2021/09/28 17:13 UTC NOAA

TAF KADW 281700Z 2817/2923 28010KT 9999 FEW050 SCT080 BKN100 QNH2984INS
BECMG 2818/2819 30009KT 9000 -SHRA VCTS SCT035CB BKN050 OVC080 QNH2985INS
TEMPO 2820/2823 28015G25KT 6000 -TSRA BKN035CB OVC050
BECMG 2902/2903 VRB06KT 9999 NSW SCT020 BKN085 OVC120 QNH2994INS
BECMG 2913/2914 35010G15KT 9999 FEW020 SCT085 QNH3003INS TX25/2820Z TN15/2911Z

Example: see airport list